Cromford, United Kingdom
Current Conditions -  °F | °C
As of 9:20 AM on Tuesday 21 Oct 2014 (Local Time) from EGNX Reporting Station
Broken Clouds Broken Clouds  
Wind Chill: 50°   Ceiling: 3000
Heat Index: 50°   Visibility: 6mi
Dew Point: 43°   Wind: 23mph
Humidity: 76%   Direction: 270°W
Pressure: 29.5"   Gusts: NA
Location:  53.11°N, 1.56°W
Report Text: EGNX 210820Z 27020KT 9999 FEW012 BKN030 10/06 Q0999
Loading
Personal Weather Stations






























Interactive Weather Map New forecast layout! Learn more

10-Day Weather Forecast

Advertisements
Track Severe Weather on mobile